Time;durP1;ratioP1;P1;durP2;ratioP2;P2;SDS_P1;SDS_P2;PMS_P1;PMS_P2;Temp;Humidity;BMP_temperature;BMP_pressure;BME280_temperature;BME280_humidity;BME280_pressure;Samples;Min_cycle;Max_cycle;Signal;HPM_P1;HPM_P2
2022/04/23 00:01:14;;;;;;;8.90;3.85;;;;;;;;;;4446896;32;20656;-52
2022/04/23 00:03:40;;;;;;;8.93;3.85;;;;;;;;;;4443474;32;20280;-53
2022/04/23 00:06:06;;;;;;;10.57;3.87;;;;;;;;;;4446053;32;20329;-52
2022/04/23 00:08:32;;;;;;;12.30;5.72;;;;;;;;;;4431224;32;20287;-54
2022/04/23 00:10:58;;;;;;;11.93;4.15;;;;;;;;;;4432784;32;20260;-52
2022/04/23 00:13:24;;;;;;;9.75;4.47;;;;;;;;;;4431387;32;20303;-53
2022/04/23 00:15:49;;;;;;;9.05;3.87;;;;;;;;;;4432806;32;20539;-52
2022/04/23 00:18:14;;;;;;;20.90;5.05;;;;;;;;;;4447467;32;20411;-52
2022/04/23 00:20:40;;;;;;;21.25;8.60;;;;;;;;;;4448266;32;20228;-53
2022/04/23 00:23:07;;;;;;;14.18;6.70;;;;;;;;;;4447600;32;20236;-53
2022/04/23 00:25:36;;;;;;;13.65;7.62;;;;;;;;;;4442142;32;20648;-53
2022/04/23 00:28:01;;;;;;;9.85;5.82;;;;;;;;;;4443449;32;20204;-53
2022/04/23 00:30:27;;;;;;;10.50;5.80;;;;;;;;;;4432696;32;20251;-53
2022/04/23 00:32:52;;;;;;;12.23;5.30;;;;;;;;;;4434574;32;20244;-53
2022/04/23 00:35:18;;;;;;;9.30;4.75;;;;;;;;;;4435541;32;20345;-53
2022/04/23 00:37:45;;;;;;;9.37;4.87;;;;;;;;;;4442320;32;20401;-53
2022/04/23 00:40:18;;;;;;;16.48;5.57;;;;;;;;;;4433295;32;20234;-53
2022/04/23 00:42:53;;;;;;;9.73;5.05;;;;;;;;;;4438952;32;20287;-53
2022/04/23 00:45:23;;;;;;;8.37;4.83;;;;;;;;;;4446968;32;20230;-53
2022/04/23 00:47:49;;;;;;;12.80;4.10;;;;;;;;;;4440562;32;20236;-53
2022/04/23 00:50:20;;;;;;;6.07;3.90;;;;;;;;;;4441322;32;20232;-53
2022/04/23 00:52:49;;;;;;;9.38;3.70;;;;;;;;;;4442981;32;20204;-53
2022/04/23 00:55:14;;;;;;;8.57;3.90;;;;;;;;;;4446529;32;20553;-53
2022/04/23 00:57:40;;;;;;;7.97;4.70;;;;;;;;;;4440700;32;20205;-53
2022/04/23 01:00:08;;;;;;;9.93;3.90;;;;;;;;;;4440055;32;20208;-54
2022/04/23 01:02:35;;;;;;;9.65;4.75;;;;;;;;;;4433857;32;20673;-53
2022/04/23 01:05:01;;;;;;;15.25;4.43;;;;;;;;;;4436347;32;20255;-53
2022/04/23 01:07:27;;;;;;;16.75;4.87;;;;;;;;;;4436653;32;20342;-53
2022/04/23 01:09:53;;;;;;;9.43;5.30;;;;;;;;;;4442674;32;20322;-53
2022/04/23 01:12:19;;;;;;;11.07;5.80;;;;;;;;;;4432965;32;20243;-55
2022/04/23 01:15:01;;;;;;;8.30;4.80;;;;;;;;;;4437264;32;20339;-53
2022/04/23 01:17:27;;;;;;;13.45;5.25;;;;;;;;;;4442735;32;20645;-53
2022/04/23 01:19:53;;;;;;;14.87;4.93;;;;;;;;;;4436005;32;20287;-53
2022/04/23 01:22:18;;;;;;;6.33;3.53;;;;;;;;;;4434252;32;20290;-54
2022/04/23 01:24:44;;;;;;;7.90;4.20;;;;;;;;;;4435109;32;20225;-54
2022/04/23 01:27:13;;;;;;;12.07;5.40;;;;;;;;;;4450188;32;20254;-54
2022/04/23 01:29:39;;;;;;;5.33;3.87;;;;;;;;;;4449399;32;20680;-53
2022/04/23 01:32:05;;;;;;;8.60;4.80;;;;;;;;;;4450329;32;20287;-53
2022/04/23 01:34:31;;;;;;;14.97;6.33;;;;;;;;;;4449604;32;20644;-53
2022/04/23 01:36:56;;;;;;;9.57;6.17;;;;;;;;;;4449926;32;20269;-53
2022/04/23 01:39:22;;;;;;;14.48;6.18;;;;;;;;;;4435047;32;20306;-53
2022/04/23 01:41:47;;;;;;;12.47;6.23;;;;;;;;;;4434259;32;20309;-53
2022/04/23 01:44:14;;;;;;;8.93;5.70;;;;;;;;;;4434067;32;20688;-54
2022/04/23 01:46:39;;;;;;;17.10;5.60;;;;;;;;;;4434777;32;20247;-53
2022/04/23 01:49:05;;;;;;;7.90;4.73;;;;;;;;;;4434707;32;20291;-53
2022/04/23 01:51:30;;;;;;;11.27;6.00;;;;;;;;;;4442831;32;20270;-53
2022/04/23 01:53:56;;;;;;;12.20;6.72;;;;;;;;;;4449021;32;20467;-53
2022/04/23 01:56:21;;;;;;;11.77;5.53;;;;;;;;;;4438092;32;20303;-53
2022/04/23 01:58:46;;;;;;;8.10;5.00;;;;;;;;;;4437825;32;20546;-53
2022/04/23 02:01:12;;;;;;;13.55;5.90;;;;;;;;;;4433995;32;20299;-53
2022/04/23 02:03:37;;;;;;;11.05;7.05;;;;;;;;;;4440748;32;20392;-53
2022/04/23 02:06:03;;;;;;;10.40;5.17;;;;;;;;;;4443684;32;20738;-52
2022/04/23 02:08:28;;;;;;;12.20;4.97;;;;;;;;;;4434577;32;20307;-52
2022/04/23 02:10:54;;;;;;;9.80;4.83;;;;;;;;;;4440323;32;20221;-52
2022/04/23 02:13:20;;;;;;;8.50;5.00;;;;;;;;;;4447046;32;20298;-54
2022/04/23 02:15:45;;;;;;;10.30;5.90;;;;;;;;;;4448373;32;20228;-52
2022/04/23 02:18:11;;;;;;;13.60;6.10;;;;;;;;;;4449745;32;20603;-52
2022/04/23 02:20:37;;;;;;;9.37;4.63;;;;;;;;;;4446200;32;20296;-53
2022/04/23 02:23:03;;;;;;;8.77;4.47;;;;;;;;;;4448521;32;20224;-52
2022/04/23 02:25:35;;;;;;;7.43;4.60;;;;;;;;;;4437037;32;20284;-52
2022/04/23 02:28:01;;;;;;;11.73;5.63;;;;;;;;;;4440351;32;20209;-51
2022/04/23 02:30:26;;;;;;;8.63;5.53;;;;;;;;;;4438890;32;20343;-53
2022/04/23 02:32:52;;;;;;;9.03;4.53;;;;;;;;;;4442860;32;20234;-52
2022/04/23 02:35:20;;;;;;;16.23;6.37;;;;;;;;;;4442605;32;20375;-53
2022/04/23 02:37:47;;;;;;;8.90;4.80;;;;;;;;;;4441853;32;20567;-53
2022/04/23 02:40:14;;;;;;;12.47;5.77;;;;;;;;;;4443420;32;20272;-53
2022/04/23 02:42:40;;;;;;;9.03;5.17;;;;;;;;;;4438172;32;20243;-53
2022/04/23 02:45:07;;;;;;;16.57;7.73;;;;;;;;;;4433283;32;20291;-54
2022/04/23 02:47:52;;;;;;;10.43;5.30;;;;;;;;;;4433297;32;20563;-53
2022/04/23 02:50:26;;;;;;;6.93;4.40;;;;;;;;;;4440820;32;20228;-53
2022/04/23 02:52:53;;;;;;;14.80;6.07;;;;;;;;;;4432924;32;20197;-53
2022/04/23 02:55:18;;;;;;;12.77;6.05;;;;;;;;;;4436347;32;20239;-52
2022/04/23 02:57:44;;;;;;;12.33;5.40;;;;;;;;;;4434290;32;20208;-54
2022/04/23 03:00:11;;;;;;;11.77;5.20;;;;;;;;;;4439948;32;20209;-54
2022/04/23 03:02:37;;;;;;;14.60;5.20;;;;;;;;;;4433648;32;20254;-53
2022/04/23 03:05:11;;;;;;;11.27;4.90;;;;;;;;;;4442001;32;20232;-53
2022/04/23 03:07:37;;;;;;;12.90;5.77;;;;;;;;;;4433107;32;20299;-52
2022/04/23 03:10:04;;;;;;;9.20;5.80;;;;;;;;;;4437576;32;20205;-53
2022/04/23 03:12:29;;;;;;;19.03;12.33;;;;;;;;;;4433979;32;20224;-53
2022/04/23 03:14:55;;;;;;;20.13;9.00;;;;;;;;;;4446631;32;20459;-52
2022/04/23 03:17:20;;;;;;;16.43;6.80;;;;;;;;;;4447672;32;20328;-52
2022/04/23 03:19:46;;;;;;;17.80;6.37;;;;;;;;;;4442580;32;20252;-52
2022/04/23 03:22:14;;;;;;;15.93;6.77;;;;;;;;;;4431920;32;20252;-53
2022/04/23 03:24:39;;;;;;;18.00;8.13;;;;;;;;;;4444806;32;20328;-52
2022/04/23 03:27:06;;;;;;;17.20;9.60;;;;;;;;;;4441847;32;20665;-52
2022/04/23 03:29:32;;;;;;;16.23;8.77;;;;;;;;;;4447620;32;20700;-52
2022/04/23 03:31:58;;;;;;;10.93;5.28;;;;;;;;;;4434581;32;20236;-52
2022/04/23 03:34:23;;;;;;;11.83;5.13;;;;;;;;;;4444626;32;20450;-52
2022/04/23 03:36:49;;;;;;;10.73;5.73;;;;;;;;;;4435754;32;20220;-52
2022/04/23 03:39:15;;;;;;;10.30;4.83;;;;;;;;;;4438134;32;20284;-52
2022/04/23 03:41:40;;;;;;;14.27;4.80;;;;;;;;;;4445434;32;20380;-52
2022/04/23 03:44:06;;;;;;;9.17;5.40;;;;;;;;;;4434353;32;20333;-52
2022/04/23 03:46:31;;;;;;;7.97;4.77;;;;;;;;;;4447564;32;20216;-53
2022/04/23 03:48:57;;;;;;;9.30;6.03;;;;;;;;;;4437974;32;20374;-53
2022/04/23 03:51:22;;;;;;;15.60;5.90;;;;;;;;;;4443144;32;20759;-53
2022/04/23 03:53:48;;;;;;;9.20;4.50;;;;;;;;;;4447038;32;20287;-53
2022/04/23 03:56:13;;;;;;;14.27;5.40;;;;;;;;;;4445058;32;20287;-53
2022/04/23 03:58:39;;;;;;;12.53;5.17;;;;;;;;;;4440140;32;20282;-54
2022/04/23 04:01:05;;;;;;;12.40;7.35;;;;;;;;;;4437482;32;20569;-53
2022/04/23 04:03:30;;;;;;;26.67;11.10;;;;;;;;;;4433676;32;20287;-54
2022/04/23 04:05:55;;;;;;;24.90;12.77;;;;;;;;;;4437288;32;20268;-54
2022/04/23 04:08:21;;;;;;;31.10;13.00;;;;;;;;;;4450940;32;20566;-53
2022/04/23 04:10:46;;;;;;;29.07;14.17;;;;;;;;;;4440686;32;20557;-54
2022/04/23 04:13:13;;;;;;;25.93;12.37;;;;;;;;;;4445778;32;20377;-54
2022/04/23 04:15:40;;;;;;;15.00;9.03;;;;;;;;;;4448990;32;20709;-52
2022/04/23 04:18:06;;;;;;;12.43;4.78;;;;;;;;;;4436951;32;20213;-52
2022/04/23 04:20:32;;;;;;;18.53;4.33;;;;;;;;;;4441504;32;20733;-53
2022/04/23 04:22:57;;;;;;;8.47;4.90;;;;;;;;;;4445837;32;20305;-52
2022/04/23 04:25:23;;;;;;;8.52;5.20;;;;;;;;;;4448911;32;20303;-52
2022/04/23 04:27:49;;;;;;;14.13;8.03;;;;;;;;;;4435326;32;20229;-53
2022/04/23 04:30:15;;;;;;;14.37;6.83;;;;;;;;;;4438526;32;20613;-53
2022/04/23 04:32:41;;;;;;;14.43;6.97;;;;;;;;;;4446691;32;20216;-53
2022/04/23 04:35:08;;;;;;;9.67;6.20;;;;;;;;;;4438818;32;20204;-54
2022/04/23 04:37:34;;;;;;;15.90;8.27;;;;;;;;;;4434802;32;20279;-53
2022/04/23 04:39:59;;;;;;;19.47;8.00;;;;;;;;;;4444145;32;20272;-53
2022/04/23 04:42:25;;;;;;;15.90;6.43;;;;;;;;;;4447418;32;20697;-53
2022/04/23 04:44:50;;;;;;;12.17;5.97;;;;;;;;;;4449512;32;20213;-54
2022/04/23 04:47:16;;;;;;;9.07;7.07;;;;;;;;;;4449916;32;20293;-54
2022/04/23 04:49:42;;;;;;;10.03;5.67;;;;;;;;;;4446764;32;20344;-54
2022/04/23 04:52:07;;;;;;;11.50;5.60;;;;;;;;;;4450591;32;20248;-54
2022/04/23 04:54:33;;;;;;;10.93;5.97;;;;;;;;;;4445459;32;20339;-54
2022/04/23 04:57:02;;;;;;;13.03;6.97;;;;;;;;;;4449316;32;20254;-54
2022/04/23 04:59:31;;;;;;;13.77;6.83;;;;;;;;;;4447436;32;20209;-54
2022/04/23 05:01:58;;;;;;;14.47;8.83;;;;;;;;;;4446942;32;20500;-54
2022/04/23 05:04:24;;;;;;;14.40;8.57;;;;;;;;;;4441491;32;20786;-54
2022/04/23 05:06:49;;;;;;;17.53;10.40;;;;;;;;;;4447036;32;20342;-53
2022/04/23 05:09:15;;;;;;;26.10;9.43;;;;;;;;;;4449473;32;20636;-53
2022/04/23 05:11:40;;;;;;;14.97;9.87;;;;;;;;;;4450748;32;20224;-54
2022/04/23 05:14:06;;;;;;;24.97;12.93;;;;;;;;;;4445381;32;20220;-53
2022/04/23 05:16:31;;;;;;;26.40;14.80;;;;;;;;;;4450379;32;20719;-53
2022/04/23 05:18:56;;;;;;;23.57;13.13;;;;;;;;;;4440405;32;20721;-53
2022/04/23 05:21:22;;;;;;;26.43;13.50;;;;;;;;;;4447440;32;20620;-52
2022/04/23 05:23:47;;;;;;;23.33;14.37;;;;;;;;;;4449353;32;20621;-53
2022/04/23 05:26:13;;;;;;;29.50;16.07;;;;;;;;;;4437240;32;20442;-53
2022/04/23 05:28:40;;;;;;;43.10;16.70;;;;;;;;;;4442191;32;20268;-54
2022/04/23 05:31:06;;;;;;;28.00;14.93;;;;;;;;;;4435354;32;20387;-52
2022/04/23 05:33:31;;;;;;;28.77;15.85;;;;;;;;;;4436013;32;20275;-53
2022/04/23 05:35:57;;;;;;;29.70;15.70;;;;;;;;;;4445950;32;20224;-52
2022/04/23 05:38:23;;;;;;;24.92;14.27;;;;;;;;;;4441866;32;20283;-52
2022/04/23 05:40:49;;;;;;;30.92;17.05;;;;;;;;;;4438476;32;20231;-53
2022/04/23 05:43:15;;;;;;;28.38;13.25;;;;;;;;;;4434974;32;20209;-53
2022/04/23 05:45:41;;;;;;;23.00;11.27;;;;;;;;;;4442365;32;20251;-53
2022/04/23 05:48:07;;;;;;;16.98;9.55;;;;;;;;;;4449187;32;20248;-53
2022/04/23 05:50:32;;;;;;;25.33;8.80;;;;;;;;;;4445802;32;20740;-53
2022/04/23 05:52:58;;;;;;;14.30;9.68;;;;;;;;;;4448572;32;20701;-53
2022/04/23 05:55:24;;;;;;;25.30;11.90;;;;;;;;;;4436816;32;20335;-52
2022/04/23 05:57:50;;;;;;;23.40;11.43;;;;;;;;;;4440138;32;20675;-52
2022/04/23 06:00:15;;;;;;;19.97;12.93;;;;;;;;;;4445538;32;20286;-52
2022/04/23 06:02:41;;;;;;;27.80;10.87;;;;;;;;;;4442225;32;20533;-53
2022/04/23 06:05:07;;;;;;;20.25;12.63;;;;;;;;;;4436055;32;20272;-54
2022/04/23 06:07:33;;;;;;;25.45;13.10;;;;;;;;;;4447154;32;20397;-53
2022/04/23 06:09:59;;;;;;;21.05;11.00;;;;;;;;;;4443187;32;20639;-54
2022/04/23 06:12:24;;;;;;;23.17;8.82;;;;;;;;;;4432962;32;20236;-53
2022/04/23 06:14:50;;;;;;;17.87;9.38;;;;;;;;;;4446153;32;20295;-53
2022/04/23 06:17:15;;;;;;;13.23;6.70;;;;;;;;;;4449613;32;20263;-53
2022/04/23 06:19:42;;;;;;;10.45;4.87;;;;;;;;;;4444684;32;20369;-54
2022/04/23 06:22:08;;;;;;;9.88;6.10;;;;;;;;;;4433846;32;20224;-53
2022/04/23 06:24:34;;;;;;;10.45;6.37;;;;;;;;;;4433773;32;20900;-53
2022/04/23 06:27:01;;;;;;;21.03;7.97;;;;;;;;;;4433294;32;20220;-54
2022/04/23 06:29:26;;;;;;;12.55;7.25;;;;;;;;;;4442390;32;20338;-53
2022/04/23 06:31:52;;;;;;;12.95;7.45;;;;;;;;;;4434015;32;20216;-52
2022/04/23 06:34:17;;;;;;;13.63;6.87;;;;;;;;;;4441528;32;20358;-52
2022/04/23 06:36:43;;;;;;;11.40;6.90;;;;;;;;;;4444245;32;20330;-53
2022/04/23 06:39:09;;;;;;;17.08;7.90;;;;;;;;;;4441208;32;20330;-54
2022/04/23 06:41:34;;;;;;;18.37;8.60;;;;;;;;;;4442833;32;20239;-54
2022/04/23 06:44:00;;;;;;;16.83;10.05;;;;;;;;;;4440217;32;20423;-53
2022/04/23 06:46:26;;;;;;;18.55;9.10;;;;;;;;;;4443453;32;20263;-53
2022/04/23 06:48:51;;;;;;;12.80;8.80;;;;;;;;;;4439718;32;20330;-52
2022/04/23 06:51:17;;;;;;;17.95;7.80;;;;;;;;;;4441257;32;20337;-53
2022/04/23 06:53:42;;;;;;;22.65;8.25;;;;;;;;;;4440504;32;20338;-52
2022/04/23 06:56:08;;;;;;;14.25;6.93;;;;;;;;;;4444039;32;20610;-53
2022/04/23 06:58:34;;;;;;;18.35;6.30;;;;;;;;;;4445562;32;20777;-53
2022/04/23 07:01:00;;;;;;;12.45;5.50;;;;;;;;;;4434460;32;20209;-53
2022/04/23 07:03:27;;;;;;;11.23;4.60;;;;;;;;;;4438368;32;20324;-53
2022/04/23 07:05:52;;;;;;;25.83;5.72;;;;;;;;;;4438356;32;20721;-53
2022/04/23 07:08:18;;;;;;;12.80;4.93;;;;;;;;;;4441648;32;20275;-53
2022/04/23 07:10:47;;;;;;;11.65;4.32;;;;;;;;;;4446884;32;20328;-53
2022/04/23 07:13:12;;;;;;;8.48;3.97;;;;;;;;;;4449363;32;20213;-54
2022/04/23 07:15:44;;;;;;;11.90;4.40;;;;;;;;;;4443205;32;20271;-54
2022/04/23 07:18:10;;;;;;;12.90;3.85;;;;;;;;;;4435167;32;20349;-54
2022/04/23 07:20:39;;;;;;;8.13;3.20;;;;;;;;;;4443576;32;20248;-54
2022/04/23 07:25:48;;;;;;;10.57;3.58;;;;;;;;;;4432042;32;20330;-54
2022/04/23 07:28:14;;;;;;;5.82;2.40;;;;;;;;;;4433244;32;20216;-53
2022/04/23 07:30:39;;;;;;;9.15;2.78;;;;;;;;;;4435286;32;20732;-53
2022/04/23 07:33:05;;;;;;;9.13;3.25;;;;;;;;;;4442547;32;20268;-53
2022/04/23 07:38:18;;;;;;;17.87;3.33;;;;;;;;;;4440141;32;20704;-53
2022/04/23 07:40:44;;;;;;;9.43;3.28;;;;;;;;;;4438383;32;20420;-54
2022/04/23 07:43:12;;;;;;;8.25;3.80;;;;;;;;;;4442208;32;20216;-52
2022/04/23 07:45:38;;;;;;;9.02;3.70;;;;;;;;;;4434988;32;20589;-52
2022/04/23 07:48:05;;;;;;;13.23;3.75;;;;;;;;;;4440083;32;20703;-53
2022/04/23 07:50:32;;;;;;;6.95;3.10;;;;;;;;;;4439419;32;20258;-53
2022/04/23 07:52:58;;;;;;;19.35;3.97;;;;;;;;;;4441536;32;20616;-54
2022/04/23 07:55:23;;;;;;;9.23;3.70;;;;;;;;;;4438136;32;20292;-54
2022/04/23 07:57:49;;;;;;;18.30;3.55;;;;;;;;;;4431451;32;20239;-53
2022/04/23 08:00:15;;;;;;;6.82;3.30;;;;;;;;;;4437101;32;20319;-53
2022/04/23 08:02:40;;;;;;;5.20;2.75;;;;;;;;;;4437819;32;20308;-53
2022/04/23 08:05:09;;;;;;;12.35;4.07;;;;;;;;;;4434919;32;20237;-54
2022/04/23 08:07:34;;;;;;;13.98;4.03;;;;;;;;;;4443000;32;20248;-54
2022/04/23 08:10:02;;;;;;;14.80;3.92;;;;;;;;;;4440863;32;20196;-54
2022/04/23 08:12:28;;;;;;;15.52;3.67;;;;;;;;;;4432918;32;20727;-54
2022/04/23 08:14:53;;;;;;;6.07;2.90;;;;;;;;;;4438620;32;20303;-53
2022/04/23 08:17:18;;;;;;;10.32;4.18;;;;;;;;;;4434183;32;20323;-53
2022/04/23 08:19:44;;;;;;;7.82;2.92;;;;;;;;;;4437422;32;20263;-53
2022/04/23 08:22:09;;;;;;;21.35;3.20;;;;;;;;;;4441670;32;20275;-53
2022/04/23 08:24:35;;;;;;;15.57;4.07;;;;;;;;;;4438925;32;20235;-53
2022/04/23 08:27:00;;;;;;;12.23;3.70;;;;;;;;;;4436572;32;20275;-53
2022/04/23 08:32:10;;;;;;;18.87;4.50;;;;;;;;;;4434453;32;20239;-53
2022/04/23 08:34:35;;;;;;;18.15;4.10;;;;;;;;;;4439524;32;20295;-53
2022/04/23 08:37:02;;;;;;;12.95;4.57;;;;;;;;;;4439195;32;20278;-53
2022/04/23 08:39:28;;;;;;;13.88;3.60;;;;;;;;;;4440206;32;20654;-54
2022/04/23 08:41:53;;;;;;;7.43;3.37;;;;;;;;;;4438081;32;20300;-53
2022/04/23 08:44:21;;;;;;;11.12;4.95;;;;;;;;;;4437744;32;20686;-53
2022/04/23 08:46:50;;;;;;;14.63;4.28;;;;;;;;;;4439585;32;20270;-53
2022/04/23 08:49:17;;;;;;;40.05;3.87;;;;;;;;;;4444493;32;20343;-54
2022/04/23 08:51:53;;;;;;;19.30;2.83;;;;;;;;;;4433739;32;20271;-54
2022/04/23 08:54:19;;;;;;;11.60;3.12;;;;;;;;;;4445059;32;20256;-53
2022/04/23 08:56:46;;;;;;;10.10;3.00;;;;;;;;;;4443783;32;20266;-53
2022/04/23 08:59:14;;;;;;;11.52;4.15;;;;;;;;;;4443079;32;20349;-53
2022/04/23 09:01:41;;;;;;;23.92;4.43;;;;;;;;;;4447688;32;20343;-53
2022/04/23 09:04:07;;;;;;;17.58;3.15;;;;;;;;;;4436711;32;20272;-54
2022/04/23 09:06:37;;;;;;;7.30;3.05;;;;;;;;;;4436729;32;20264;-54
2022/04/23 09:09:10;;;;;;;16.65;3.60;;;;;;;;;;4434258;32;20307;-53
2022/04/23 09:11:37;;;;;;;14.57;3.00;;;;;;;;;;4447106;32;20228;-53
2022/04/23 09:14:03;;;;;;;17.83;3.58;;;;;;;;;;4435718;32;20637;-54
2022/04/23 09:24:45;;;;;;;11.45;2.47;;;;;;;;;;4440459;32;20612;-54
2022/04/23 09:27:11;;;;;;;17.87;2.62;;;;;;;;;;4443177;32;20286;-54
2022/04/23 09:29:37;;;;;;;14.55;1.92;;;;;;;;;;4439415;32;20228;-55
2022/04/23 09:32:17;;;;;;;10.00;3.67;;;;;;;;;;4436603;32;20311;-55
2022/04/23 09:34:42;;;;;;;9.68;2.65;;;;;;;;;;4433421;32;20240;-54
2022/04/23 09:37:08;;;;;;;17.87;2.33;;;;;;;;;;4436328;32;20244;-53
2022/04/23 09:39:35;;;;;;;11.18;2.20;;;;;;;;;;4437181;32;20302;-55
2022/04/23 09:42:18;;;;;;;14.43;2.45;;;;;;;;;;4444790;32;20294;-53
2022/04/23 09:44:45;;;;;;;13.07;2.92;;;;;;;;;;4439196;32;20272;-54
2022/04/23 09:47:27;;;;;;;12.15;2.47;;;;;;;;;;4436781;32;20228;-53
2022/04/23 09:49:56;;;;;;;8.25;2.05;;;;;;;;;;4443817;32;20215;-53
2022/04/23 09:52:29;;;;;;;9.00;2.20;;;;;;;;;;4437721;32;20307;-55
2022/04/23 09:54:55;;;;;;;6.22;1.45;;;;;;;;;;4445837;32;20371;-53
2022/04/23 09:57:22;;;;;;;23.00;2.83;;;;;;;;;;4437321;32;20289;-53
2022/04/23 09:59:51;;;;;;;9.85;2.60;;;;;;;;;;4432817;32;20319;-54
2022/04/23 10:02:29;;;;;;;13.05;1.92;;;;;;;;;;4434795;32;20601;-53
2022/04/23 10:04:58;;;;;;;12.90;1.87;;;;;;;;;;4442006;32;20327;-53
2022/04/23 10:07:25;;;;;;;16.65;2.25;;;;;;;;;;4433369;32;20614;-54
2022/04/23 10:09:51;;;;;;;10.02;2.20;;;;;;;;;;4440978;32;20285;-54
2022/04/23 10:12:19;;;;;;;17.25;2.25;;;;;;;;;;4441022;32;20241;-54
2022/04/23 10:14:49;;;;;;;14.27;1.98;;;;;;;;;;4441947;32;20300;-55
2022/04/23 10:17:18;;;;;;;10.40;2.33;;;;;;;;;;4439104;32;20343;-54
2022/04/23 10:19:44;;;;;;;6.57;1.48;;;;;;;;;;4440955;32;20315;-53
2022/04/23 10:22:21;;;;;;;12.43;2.55;;;;;;;;;;4433426;32;20312;-54
2022/04/23 10:25:05;;;;;;;8.20;2.05;;;;;;;;;;4442017;32;20698;-53
2022/04/23 10:27:33;;;;;;;13.25;2.62;;;;;;;;;;4437927;32;20200;-54
2022/04/23 10:30:02;;;;;;;16.48;2.58;;;;;;;;;;4443590;32;20275;-54
2022/04/23 10:32:41;;;;;;;15.70;3.53;;;;;;;;;;4430416;32;20229;-55
2022/04/23 10:35:18;;;;;;;6.95;1.95;;;;;;;;;;4444444;32;20584;-55
2022/04/23 10:37:48;;;;;;;9.60;2.72;;;;;;;;;;4436376;32;20372;-56
2022/04/23 10:40:19;;;;;;;7.68;2.22;;;;;;;;;;4432250;32;20295;-54
2022/04/23 10:43:07;;;;;;;13.30;2.67;;;;;;;;;;4440356;32;20433;-54
2022/04/23 10:45:33;;;;;;;5.07;1.58;;;;;;;;;;4434613;32;20213;-54
2022/04/23 10:48:23;;;;;;;7.97;1.92;;;;;;;;;;4439805;32;20201;-54
2022/04/23 10:51:08;;;;;;;3.47;1.67;;;;;;;;;;4432127;32;20503;-54
2022/04/23 10:53:43;;;;;;;6.28;2.00;;;;;;;;;;4444583;32;20288;-54
2022/04/23 10:56:15;;;;;;;8.52;2.60;;;;;;;;;;4441792;32;20217;-54
2022/04/23 10:58:41;;;;;;;11.30;1.87;;;;;;;;;;4435615;32;20653;-54
2022/04/23 11:01:20;;;;;;;9.35;1.98;;;;;;;;;;4435836;32;20270;-54
2022/04/23 11:03:55;;;;;;;7.82;2.10;;;;;;;;;;4436063;32;20911;-53
2022/04/23 11:12:37;;;;;;;13.18;3.10;;;;;;;;;;4424144;32;20259;-53
2022/04/23 11:15:14;;;;;;;20.92;2.55;;;;;;;;;;4436961;32;20323;-53
2022/04/23 11:17:39;;;;;;;13.60;2.42;;;;;;;;;;4430399;32;20328;-53
2022/04/23 11:20:05;;;;;;;11.43;2.72;;;;;;;;;;4431199;32;20366;-53
2022/04/23 11:22:31;;;;;;;11.57;2.37;;;;;;;;;;4433884;32;20752;-54
2022/04/23 11:24:57;;;;;;;9.75;1.95;;;;;;;;;;4435065;32;20279;-53
2022/04/23 11:27:36;;;;;;;13.30;2.58;;;;;;;;;;4438982;32;20273;-55
2022/04/23 11:30:03;;;;;;;11.82;3.00;;;;;;;;;;4441747;32;20208;-53
2022/04/23 11:32:33;;;;;;;6.62;1.80;;;;;;;;;;4443081;32;20304;-53
2022/04/23 11:35:00;;;;;;;9.02;2.97;;;;;;;;;;4441334;32;20225;-54
2022/04/23 11:37:32;;;;;;;10.23;2.30;;;;;;;;;;4435022;32;20240;-52
2022/04/23 11:40:08;;;;;;;13.62;2.55;;;;;;;;;;4435864;32;20274;-53
2022/04/23 11:42:42;;;;;;;11.30;2.75;;;;;;;;;;4441668;32;20261;-54
2022/04/23 11:45:09;;;;;;;10.63;2.78;;;;;;;;;;4437673;32;20282;-54
2022/04/23 11:47:35;;;;;;;6.45;1.95;;;;;;;;;;4437966;32;20359;-53
2022/04/23 11:50:22;;;;;;;9.60;3.00;;;;;;;;;;4436664;32;20279;-53
2022/04/23 11:53:05;;;;;;;10.80;2.35;;;;;;;;;;4434324;32;20244;-54
2022/04/23 11:55:31;;;;;;;5.55;2.17;;;;;;;;;;4438189;32;20271;-53
2022/04/23 11:57:59;;;;;;;118.85;14.23;;;;;;;;;;4438697;32;20228;-53
2022/04/23 12:00:26;;;;;;;12.15;3.42;;;;;;;;;;4439986;32;20333;-54
2022/04/23 12:02:52;;;;;;;13.40;3.50;;;;;;;;;;4436628;32;20585;-54
2022/04/23 12:05:25;;;;;;;10.55;2.47;;;;;;;;;;4437995;32;20224;-54
2022/04/23 12:07:51;;;;;;;21.95;3.55;;;;;;;;;;4436735;32;20243;-54
2022/04/23 12:10:23;;;;;;;8.65;2.83;;;;;;;;;;4440913;32;20279;-55
2022/04/23 12:12:50;;;;;;;10.98;1.67;;;;;;;;;;4437298;32;20728;-54
2022/04/23 12:15:15;;;;;;;10.35;2.35;;;;;;;;;;4433993;32;20381;-54
2022/04/23 12:17:49;;;;;;;9.73;2.80;;;;;;;;;;4441632;32;20302;-53
2022/04/23 12:20:26;;;;;;;15.27;3.50;;;;;;;;;;4431917;32;20313;-53
2022/04/23 12:23:00;;;;;;;9.00;2.35;;;;;;;;;;4438884;32;20208;-54
2022/04/23 12:25:30;;;;;;;9.05;2.30;;;;;;;;;;4445937;32;20265;-53
2022/04/23 12:42:01;;;;;;;20.65;3.83;;;;;;;;;;4437242;32;20365;-53
2022/04/23 12:44:35;;;;;;;17.15;4.45;;;;;;;;;;4446051;32;20216;-53
2022/04/23 12:47:03;;;;;;;10.95;2.05;;;;;;;;;;4438266;32;20365;-54
2022/04/23 12:49:47;;;;;;;9.73;2.70;;;;;;;;;;4441779;32;20212;-54
2022/04/23 12:52:23;;;;;;;21.45;2.72;;;;;;;;;;4433631;32;20766;-55
2022/04/23 12:55:22;;;;;;;5.82;2.08;;;;;;;;;;4444378;32;20290;-54
2022/04/23 12:57:47;;;;;;;7.15;2.22;;;;;;;;;;4442808;32;20232;-53
2022/04/23 13:00:16;;;;;;;14.32;2.58;;;;;;;;;;4442969;32;20318;-54
2022/04/23 13:02:45;;;;;;;11.88;2.22;;;;;;;;;;4432331;32;20269;-55
2022/04/23 13:05:12;;;;;;;10.02;2.25;;;;;;;;;;4439943;32;20252;-54
2022/04/23 13:10:22;;;;;;;14.25;2.62;;;;;;;;;;4439453;32;20296;-53
2022/04/23 13:12:48;;;;;;;12.00;2.70;;;;;;;;;;4438960;32;20612;-53
2022/04/23 13:15:15;;;;;;;14.43;2.65;;;;;;;;;;4441905;32;20307;-54
2022/04/23 13:17:41;;;;;;;11.38;1.95;;;;;;;;;;4438319;32;20237;-54
2022/04/23 13:20:11;;;;;;;6.00;2.45;;;;;;;;;;4438483;32;20340;-55
2022/04/23 13:22:37;;;;;;;10.80;2.67;;;;;;;;;;4434932;32;20564;-54
2022/04/23 13:25:06;;;;;;;8.00;2.65;;;;;;;;;;4445353;32;20414;-54
2022/04/23 13:27:33;;;;;;;12.90;2.15;;;;;;;;;;4435877;32;20224;-54
2022/04/23 13:29:59;;;;;;;11.48;2.37;;;;;;;;;;4433253;32;20326;-54
2022/04/23 13:32:25;;;;;;;6.00;1.50;;;;;;;;;;4440494;32;20518;-53
2022/04/23 13:34:51;;;;;;;8.85;2.60;;;;;;;;;;4441956;32;20240;-53
2022/04/23 13:37:17;;;;;;;12.23;2.90;;;;;;;;;;4434424;32;20606;-53
2022/04/23 13:39:43;;;;;;;7.40;2.45;;;;;;;;;;4438351;32;20564;-54
2022/04/23 13:42:08;;;;;;;11.88;2.50;;;;;;;;;;4444456;32;20243;-53
2022/04/23 13:44:35;;;;;;;10.23;2.12;;;;;;;;;;4432328;32;20707;-53
2022/04/23 13:47:02;;;;;;;9.05;2.67;;;;;;;;;;4435526;32;20316;-54
2022/04/23 13:49:27;;;;;;;9.13;2.05;;;;;;;;;;4442689;32;20598;-54
2022/04/23 13:51:53;;;;;;;16.67;2.17;;;;;;;;;;4433922;32;20844;-53
2022/04/23 13:54:19;;;;;;;8.13;1.85;;;;;;;;;;4431411;32;20353;-53
2022/04/23 13:56:46;;;;;;;12.18;1.90;;;;;;;;;;4436991;32;20362;-53
2022/04/23 13:59:12;;;;;;;6.78;2.30;;;;;;;;;;4444539;32;20267;-54
2022/04/23 14:01:38;;;;;;;7.37;1.92;;;;;;;;;;4433537;32;20300;-54
2022/04/23 14:12:16;;;;;;;12.52;2.92;;;;;;;;;;4443668;32;20263;-53
2022/04/23 14:14:42;;;;;;;5.53;2.08;;;;;;;;;;4437315;32;20271;-53
2022/04/23 14:17:07;;;;;;;11.15;2.10;;;;;;;;;;4437376;32;20268;-54
2022/04/23 14:19:33;;;;;;;7.62;1.95;;;;;;;;;;4440692;32;20777;-54
2022/04/23 14:21:58;;;;;;;11.07;2.83;;;;;;;;;;4442414;32;20292;-55
2022/04/23 14:24:25;;;;;;;6.43;2.33;;;;;;;;;;4435819;32;20762;-56
2022/04/23 14:26:50;;;;;;;8.98;2.53;;;;;;;;;;4434247;32;20237;-54
2022/04/23 14:29:16;;;;;;;13.93;2.97;;;;;;;;;;4441413;32;20346;-54
2022/04/23 14:31:41;;;;;;;11.18;3.03;;;;;;;;;;4435124;32;20746;-55
2022/04/23 14:34:07;;;;;;;10.93;2.10;;;;;;;;;;4436662;32;20476;-55
2022/04/23 14:36:34;;;;;;;12.82;2.35;;;;;;;;;;4438292;32;20291;-54
2022/04/23 14:39:01;;;;;;;9.55;2.45;;;;;;;;;;4445913;32;20262;-55
2022/04/23 14:41:26;;;;;;;13.70;2.37;;;;;;;;;;4433940;32;20584;-54
2022/04/23 14:43:52;;;;;;;10.27;2.28;;;;;;;;;;4438660;32;20224;-54
2022/04/23 14:46:17;;;;;;;17.33;2.97;;;;;;;;;;4433056;32;20388;-54
2022/04/23 14:48:43;;;;;;;3.33;1.42;;;;;;;;;;4446968;32;20776;-53
2022/04/23 14:53:54;;;;;;;7.65;2.50;;;;;;;;;;4442918;32;20230;-53
2022/04/23 14:56:20;;;;;;;6.05;2.80;;;;;;;;;;4431163;32;20423;-54
2022/04/23 14:58:46;;;;;;;15.30;2.55;;;;;;;;;;4439473;32;20281;-54
2022/04/23 15:01:12;;;;;;;9.80;2.33;;;;;;;;;;4432990;32;20277;-54
2022/04/23 15:03:38;;;;;;;8.65;2.10;;;;;;;;;;4423861;32;20327;-55
2022/04/23 15:06:04;;;;;;;5.85;2.42;;;;;;;;;;4433836;32;20493;-53
2022/04/23 15:08:30;;;;;;;15.38;2.53;;;;;;;;;;4433121;32;20608;-53
2022/04/23 15:10:55;;;;;;;9.70;2.65;;;;;;;;;;4443386;32;20392;-54
2022/04/23 15:13:21;;;;;;;6.80;1.75;;;;;;;;;;4434759;32;20318;-54
2022/04/23 15:15:48;;;;;;;8.48;1.48;;;;;;;;;;4437376;32;20263;-54
2022/04/23 15:18:15;;;;;;;8.80;2.47;;;;;;;;;;4442951;32;21002;-56
2022/04/23 15:20:41;;;;;;;10.48;2.30;;;;;;;;;;4438218;32;20258;-53
2022/04/23 15:23:07;;;;;;;11.80;2.25;;;;;;;;;;4434112;32;20208;-54
2022/04/23 15:25:34;;;;;;;6.60;1.83;;;;;;;;;;4433592;32;20229;-54